createdAt,value
2022-12-22T00:00:14.930Z,19.33
2022-12-22T00:03:02.379Z,17.33
2022-12-22T00:05:49.714Z,19.90
2022-12-22T00:08:39.797Z,19.43
2022-12-22T00:14:33.978Z,17.43
2022-12-22T00:17:20.271Z,19.53
2022-12-22T00:20:06.491Z,18.60
2022-12-22T00:22:53.012Z,19.30
2022-12-22T00:25:43.486Z,19.20
2022-12-22T00:28:32.886Z,20.60
2022-12-22T00:31:19.942Z,17.17
2022-12-22T00:34:05.619Z,18.73
2022-12-22T00:36:52.720Z,20.33
2022-12-22T00:39:41.389Z,18.23
2022-12-22T00:42:27.613Z,18.63
2022-12-22T00:48:17.280Z,18.93
2022-12-22T00:51:02.961Z,23.37
2022-12-22T00:53:48.560Z,19.73
2022-12-22T00:56:35.591Z,20.97
2022-12-22T00:59:22.108Z,21.37
2022-12-22T01:02:08.151Z,24.93
2022-12-22T01:04:55.206Z,21.40
2022-12-22T01:07:41.928Z,22.60
2022-12-22T01:10:31.926Z,24.37
2022-12-22T01:13:19.086Z,24.23
2022-12-22T01:16:05.031Z,23.83
2022-12-22T01:18:50.517Z,23.20
2022-12-22T01:21:35.752Z,22.83
2022-12-22T01:24:21.013Z,25.83
2022-12-22T01:27:06.470Z,22.53
2022-12-22T01:29:52.006Z,23.77
2022-12-22T01:32:37.410Z,24.20
2022-12-22T01:35:23.806Z,24.00
2022-12-22T01:38:08.921Z,24.07
2022-12-22T01:40:54.044Z,25.93
2022-12-22T01:43:40.067Z,28.53
2022-12-22T01:46:37.865Z,25.53
2022-12-22T01:49:22.934Z,27.33
2022-12-22T01:52:08.350Z,28.87
2022-12-22T01:54:54.213Z,33.63
2022-12-22T01:57:39.594Z,31.93
2022-12-22T02:00:26.773Z,30.37
2022-12-22T02:03:12.475Z,28.87
2022-12-22T02:05:58.549Z,31.17
2022-12-22T02:08:47.238Z,29.43
2022-12-22T02:11:52.750Z,27.73
2022-12-22T02:14:50.673Z,25.20
2022-12-22T02:17:45.133Z,25.80
2022-12-22T02:23:51.726Z,24.27
2022-12-22T02:26:53.118Z,25.43
2022-12-22T02:29:39.417Z,25.20
2022-12-22T02:32:25.225Z,25.50
2022-12-22T02:35:10.500Z,29.60
2022-12-22T02:38:15.257Z,28.73
2022-12-22T02:41:03.751Z,27.60
2022-12-22T02:43:52.751Z,26.87
2022-12-22T02:46:41.744Z,25.63
2022-12-22T02:49:50.806Z,29.33
2022-12-22T02:52:37.332Z,29.33
2022-12-22T02:55:22.765Z,27.17
2022-12-22T02:58:11.268Z,27.83
2022-12-22T03:00:57.040Z,28.80
2022-12-22T03:03:42.920Z,32.23
2022-12-22T03:06:28.769Z,31.57
2022-12-22T03:09:14.153Z,33.73
2022-12-22T03:11:59.353Z,28.73
2022-12-22T03:14:44.713Z,30.60
2022-12-22T03:17:29.963Z,32.47
2022-12-22T03:20:15.220Z,31.93
2022-12-22T03:23:00.593Z,28.43
2022-12-22T03:25:46.044Z,35.27
2022-12-22T03:28:13.190Z,35.73
2022-12-22T03:30:39.799Z,30.67
2022-12-22T03:33:06.396Z,30.70
2022-12-22T03:35:33.069Z,31.33
2022-12-22T03:38:03.459Z,30.53
2022-12-22T03:40:31.309Z,29.50
2022-12-22T03:46:19.696Z,32.83
2022-12-22T03:49:09.029Z,29.60
2022-12-22T03:51:36.133Z,30.63
2022-12-22T03:54:02.852Z,29.10
2022-12-22T03:56:29.594Z,28.87
2022-12-22T03:58:56.347Z,28.33
2022-12-22T04:01:23.131Z,32.27
2022-12-22T04:03:50.069Z,27.63
2022-12-22T04:06:17.205Z,29.23
2022-12-22T04:08:44.612Z,29.93
2022-12-22T04:11:30.885Z,27.07
2022-12-22T04:13:58.856Z,30.27
2022-12-22T04:16:25.552Z,30.67
2022-12-22T04:18:52.359Z,28.07
2022-12-22T04:21:18.955Z,32.37
2022-12-22T04:23:46.368Z,29.13
2022-12-22T04:26:15.736Z,28.70
2022-12-22T04:28:42.437Z,29.87
2022-12-22T04:31:09.108Z,32.50
2022-12-22T04:33:35.787Z,30.77
2022-12-22T04:36:02.357Z,31.00
2022-12-22T04:38:29.429Z,28.97
2022-12-22T04:40:56.006Z,31.63
2022-12-22T04:43:22.682Z,30.50
2022-12-22T04:45:52.312Z,34.57
2022-12-22T04:48:19.097Z,31.60
2022-12-22T04:50:45.695Z,32.17
2022-12-22T04:53:12.515Z,33.57
2022-12-22T04:55:39.710Z,30.33
2022-12-22T04:58:06.307Z,26.73
2022-12-22T05:00:32.866Z,26.90
2022-12-22T05:02:59.756Z,29.10
2022-12-22T05:05:26.484Z,30.83
2022-12-22T05:07:53.097Z,26.67
2022-12-22T05:10:20.012Z,27.63
2022-12-22T05:12:55.783Z,28.27
2022-12-22T05:15:23.194Z,25.60
2022-12-22T05:17:50.131Z,25.33
2022-12-22T05:20:17.075Z,28.90
2022-12-22T05:22:43.749Z,26.97
2022-12-22T05:25:10.592Z,26.80
2022-12-22T05:27:37.212Z,28.97
2022-12-22T05:30:04.310Z,28.40
2022-12-22T05:32:34.644Z,31.43
2022-12-22T05:35:01.944Z,28.27
2022-12-22T05:37:28.701Z,31.33
2022-12-22T05:39:55.668Z,25.63
2022-12-22T05:42:37.172Z,23.73
2022-12-22T05:45:10.140Z,26.47
2022-12-22T05:47:36.807Z,27.93
2022-12-22T05:50:10.156Z,29.60
2022-12-22T05:52:36.914Z,26.53
2022-12-22T05:55:03.813Z,30.13
2022-12-22T05:57:30.496Z,27.20
2022-12-22T05:59:57.145Z,31.83
2022-12-22T06:02:24.471Z,29.13
2022-12-22T06:04:51.843Z,32.77
2022-12-22T06:07:18.857Z,31.17
2022-12-22T06:09:45.961Z,35.50
2022-12-22T06:12:13.245Z,34.73
2022-12-22T06:14:40.293Z,29.73
2022-12-22T06:17:08.579Z,33.17
2022-12-22T06:19:35.363Z,31.40
2022-12-22T06:22:02.347Z,33.27
2022-12-22T06:24:29.041Z,31.57
2022-12-22T06:26:55.697Z,35.50
2022-12-22T06:29:22.462Z,33.23
2022-12-22T06:31:49.223Z,35.63
2022-12-22T06:34:18.104Z,31.03
2022-12-22T06:36:46.163Z,33.53
2022-12-22T06:39:14.240Z,34.70
2022-12-22T06:42:00.107Z,30.83
2022-12-22T06:44:27.108Z,34.83
2022-12-22T06:46:53.940Z,34.00
2022-12-22T06:49:21.375Z,31.17
2022-12-22T06:51:48.241Z,33.43
2022-12-22T06:54:16.732Z,38.27
2022-12-22T06:59:30.901Z,34.73
2022-12-22T07:02:11.223Z,31.10
2022-12-22T07:04:39.072Z,32.17
2022-12-22T07:07:07.053Z,29.20
2022-12-22T07:09:38.012Z,29.53
2022-12-22T07:12:04.996Z,37.00
2022-12-22T07:14:31.901Z,36.43
2022-12-22T07:17:00.221Z,35.47
2022-12-22T07:19:31.007Z,31.73
2022-12-22T07:22:06.491Z,31.50
2022-12-22T07:24:43.501Z,32.30
2022-12-22T07:29:54.940Z,31.43
2022-12-22T07:32:24.425Z,32.00
2022-12-22T07:34:51.243Z,33.83
2022-12-22T07:37:18.371Z,35.40
2022-12-22T07:42:47.350Z,33.23
2022-12-22T07:47:59.967Z,22.20
2022-12-22T07:53:13.593Z,36.60
2022-12-22T07:55:42.961Z,34.40
2022-12-22T07:58:10.732Z,33.37
2022-12-22T08:00:38.202Z,33.60
2022-12-22T08:03:06.350Z,36.27
2022-12-22T08:05:36.811Z,29.07
2022-12-22T08:08:05.310Z,34.60
2022-12-22T08:13:23.406Z,41.07
2022-12-22T08:15:50.449Z,35.20
2022-12-22T08:18:18.201Z,36.87
2022-12-22T08:20:58.495Z,41.23
2022-12-22T08:23:27.551Z,36.17
2022-12-22T08:26:00.854Z,36.03
2022-12-22T08:28:31.709Z,34.10
2022-12-22T08:30:59.176Z,33.80
2022-12-22T08:33:38.103Z,37.20
2022-12-22T08:36:08.225Z,37.90
2022-12-22T08:38:36.004Z,31.00
2022-12-22T08:41:03.017Z,39.27
2022-12-22T08:43:30.110Z,40.17
2022-12-22T08:45:58.373Z,36.80
2022-12-22T08:48:27.881Z,36.87
2022-12-22T08:50:55.610Z,41.57
2022-12-22T08:53:54.139Z,33.77
2022-12-22T08:56:10.922Z,35.93
2022-12-22T08:58:37.607Z,43.17
2022-12-22T09:01:04.588Z,36.40
2022-12-22T09:03:31.559Z,36.77
2022-12-22T09:06:02.000Z,37.17
2022-12-22T09:08:29.088Z,37.90
2022-12-22T09:10:56.197Z,33.67
2022-12-22T09:13:26.481Z,37.00
2022-12-22T09:15:53.608Z,43.03
2022-12-22T09:18:20.912Z,33.73
2022-12-22T09:20:47.934Z,44.83
2022-12-22T09:23:14.559Z,40.90
2022-12-22T09:25:42.207Z,36.13
2022-12-22T09:28:09.323Z,36.97
2022-12-22T09:30:36.225Z,37.23
2022-12-22T09:33:03.132Z,36.30
2022-12-22T09:35:30.110Z,38.70
2022-12-22T09:37:59.035Z,34.70
2022-12-22T09:40:26.565Z,37.30
2022-12-22T09:42:55.690Z,37.07
2022-12-22T09:45:22.777Z,35.27
2022-12-22T09:47:55.502Z,37.00
2022-12-22T09:50:23.972Z,33.50
2022-12-22T09:52:56.251Z,38.03
2022-12-22T09:55:27.631Z,38.80
2022-12-22T09:57:55.058Z,37.43
2022-12-22T10:00:23.209Z,37.17
2022-12-22T10:02:59.288Z,34.17
2022-12-22T10:05:39.489Z,33.27
2022-12-22T10:08:14.613Z,37.77
2022-12-22T10:10:41.908Z,36.83
2022-12-22T10:13:13.612Z,38.70
2022-12-22T10:15:40.973Z,39.20
2022-12-22T10:18:22.023Z,34.83
2022-12-22T10:21:08.088Z,24.50
2022-12-22T10:23:38.767Z,32.07
2022-12-22T10:26:29.820Z,29.93
2022-12-22T10:29:06.241Z,16.83
2022-12-22T10:31:34.207Z,29.03
2022-12-22T10:34:11.534Z,28.80
2022-12-22T10:36:38.681Z,30.97
2022-12-22T10:39:09.271Z,31.27
2022-12-22T10:41:37.491Z,25.57
2022-12-22T10:44:11.520Z,27.40
2022-12-22T10:46:39.595Z,26.17
2022-12-22T10:49:13.043Z,24.13
2022-12-22T10:51:42.344Z,25.20
2022-12-22T10:54:09.099Z,25.00
2022-12-22T10:56:36.218Z,25.30
2022-12-22T10:59:03.028Z,27.77
2022-12-22T11:01:30.740Z,26.53
2022-12-22T11:03:58.197Z,24.53
2022-12-22T11:06:25.158Z,24.17
2022-12-22T11:08:52.153Z,26.90
2022-12-22T11:11:32.874Z,27.67
2022-12-22T11:14:06.521Z,24.50
2022-12-22T11:16:37.080Z,28.00
2022-12-22T11:19:05.082Z,22.70
2022-12-22T11:21:41.252Z,26.97
2022-12-22T11:24:22.123Z,26.20
2022-12-22T11:27:07.987Z,24.87
2022-12-22T11:29:41.006Z,22.93
2022-12-22T11:32:10.868Z,28.23
2022-12-22T11:35:00.832Z,25.43
2022-12-22T11:37:27.954Z,27.53
2022-12-22T11:39:59.564Z,25.80
2022-12-22T11:42:45.592Z,27.97
2022-12-22T11:45:18.331Z,30.73
2022-12-22T11:47:54.928Z,27.97
2022-12-22T11:51:00.213Z,37.67
2022-12-22T11:53:48.433Z,34.53
2022-12-22T11:56:38.400Z,28.33
2022-12-22T11:59:24.189Z,30.67
2022-12-22T12:01:54.327Z,30.40
2022-12-22T12:04:39.772Z,33.83
2022-12-22T12:07:26.505Z,32.67
2022-12-22T12:09:59.689Z,31.97
2022-12-22T12:12:26.402Z,32.27
2022-12-22T12:15:09.532Z,31.10
2022-12-22T12:18:02.991Z,32.77
2022-12-22T12:20:39.261Z,30.23
2022-12-22T12:23:24.614Z,32.80
2022-12-22T12:26:10.001Z,29.57
2022-12-22T12:28:48.899Z,30.43
2022-12-22T12:31:18.078Z,28.90
2022-12-22T12:33:48.697Z,29.53
2022-12-22T12:36:15.319Z,31.73
2022-12-22T12:39:10.176Z,27.27
2022-12-22T12:41:40.122Z,31.70
2022-12-22T12:44:15.241Z,27.30
2022-12-22T12:46:42.663Z,28.47
2022-12-22T12:49:29.740Z,32.10
2022-12-22T12:51:56.566Z,32.90
2022-12-22T12:54:34.266Z,31.33
2022-12-22T12:57:01.086Z,29.37
2022-12-22T12:59:40.431Z,31.67
2022-12-22T13:02:25.943Z,30.57
2022-12-22T13:05:03.288Z,30.00
2022-12-22T13:07:49.909Z,26.93
2022-12-22T13:10:25.772Z,28.33
2022-12-22T13:12:53.323Z,32.10
2022-12-22T13:15:40.378Z,27.93
2022-12-22T13:18:28.858Z,31.97
2022-12-22T13:21:12.346Z,33.47
2022-12-22T13:24:14.429Z,32.37
2022-12-22T13:26:36.198Z,32.70
2022-12-22T13:29:09.974Z,34.90
2022-12-22T13:31:41.201Z,32.17
2022-12-22T13:34:24.991Z,37.07
2022-12-22T13:36:51.847Z,31.70
2022-12-22T13:39:18.520Z,36.50
2022-12-22T13:41:49.955Z,33.13
2022-12-22T13:44:18.341Z,34.50
2022-12-22T13:46:45.110Z,31.43
2022-12-22T13:49:43.365Z,35.30
2022-12-22T13:52:12.828Z,31.27
2022-12-22T13:54:40.454Z,31.67
2022-12-22T13:57:13.201Z,36.63
2022-12-22T13:59:41.034Z,40.07
2022-12-22T14:02:11.526Z,34.40
2022-12-22T14:04:39.574Z,36.63
2022-12-22T14:07:16.303Z,37.10
2022-12-22T14:09:46.701Z,37.73
2022-12-22T14:12:15.120Z,39.67
2022-12-22T14:14:42.728Z,37.20
2022-12-22T14:17:23.934Z,43.87
2022-12-22T14:19:51.592Z,43.17
2022-12-22T14:22:18.818Z,41.50
2022-12-22T14:24:46.513Z,43.73
2022-12-22T14:27:18.758Z,41.10
2022-12-22T14:29:45.711Z,42.37
2022-12-22T14:32:12.661Z,40.60
2022-12-22T14:34:39.463Z,40.10
2022-12-22T14:37:08.873Z,40.43
2022-12-22T14:39:35.588Z,40.37
2022-12-22T14:42:05.917Z,38.73
2022-12-22T14:44:37.873Z,38.73
2022-12-22T14:47:19.785Z,37.30
2022-12-22T14:50:02.188Z,36.63
2022-12-22T14:52:36.210Z,39.83
2022-12-22T14:55:03.635Z,38.07
2022-12-22T14:57:30.404Z,34.53
2022-12-22T15:00:16.026Z,32.70
2022-12-22T15:02:48.751Z,33.57
2022-12-22T15:05:28.733Z,35.17
2022-12-22T15:08:11.913Z,32.00
2022-12-22T15:10:40.359Z,26.90
2022-12-22T15:13:11.692Z,29.90
2022-12-22T15:15:41.209Z,33.03
2022-12-22T15:18:11.739Z,31.10
2022-12-22T15:20:39.577Z,32.13
2022-12-22T15:23:14.037Z,29.50
2022-12-22T15:25:44.122Z,28.30
2022-12-22T15:28:10.871Z,29.77
2022-12-22T15:30:37.574Z,28.03
2022-12-22T15:33:04.665Z,29.83
2022-12-22T15:35:32.201Z,32.40
2022-12-22T15:37:59.398Z,31.47
2022-12-22T15:40:29.380Z,34.70
2022-12-22T15:42:56.322Z,31.37
2022-12-22T15:45:23.145Z,34.90
2022-12-22T15:50:39.258Z,35.27
2022-12-22T15:55:54.661Z,37.87
2022-12-22T15:58:26.495Z,36.03
2022-12-22T16:00:57.996Z,35.37
2022-12-22T16:03:27.120Z,37.70
2022-12-22T16:05:55.798Z,36.67
2022-12-22T16:11:14.198Z,42.07
2022-12-22T16:13:44.606Z,37.63
2022-12-22T16:16:12.330Z,38.63
2022-12-22T16:18:39.309Z,39.37
2022-12-22T16:21:17.259Z,38.33
2022-12-22T16:23:44.332Z,33.20
2022-12-22T16:26:12.699Z,35.73
2022-12-22T16:28:39.843Z,36.90
2022-12-22T16:31:06.888Z,40.30
2022-12-22T16:33:34.239Z,39.60
2022-12-22T16:36:01.250Z,36.90
2022-12-22T16:38:28.357Z,40.70
2022-12-22T16:40:55.552Z,36.40
2022-12-22T16:46:14.216Z,35.90
2022-12-22T16:49:03.465Z,37.17
2022-12-22T16:51:33.878Z,42.13
2022-12-22T16:54:01.155Z,34.73
2022-12-22T16:56:31.780Z,35.27
2022-12-22T16:58:59.392Z,37.97
2022-12-22T17:01:36.954Z,39.17
2022-12-22T17:04:06.861Z,39.93
2022-12-22T17:06:34.049Z,41.50
2022-12-22T17:09:02.166Z,40.83
2022-12-22T17:11:30.484Z,40.83
2022-12-22T17:14:00.109Z,38.87
2022-12-22T17:16:28.196Z,38.37
2022-12-22T17:18:56.223Z,35.53
2022-12-22T17:21:24.917Z,40.30
2022-12-22T17:23:52.494Z,38.97
2022-12-22T17:26:20.251Z,39.13
2022-12-22T17:28:47.951Z,38.93
2022-12-22T17:31:15.703Z,42.20
2022-12-22T17:33:45.287Z,41.67
2022-12-22T17:36:36.501Z,41.50
2022-12-22T17:39:03.912Z,45.83
2022-12-22T17:41:30.921Z,42.60
2022-12-22T17:43:59.398Z,39.57
2022-12-22T17:46:27.489Z,41.33
2022-12-22T17:48:54.764Z,37.07
2022-12-22T17:51:25.443Z,42.87
2022-12-22T17:53:52.253Z,44.67
2022-12-22T17:56:24.201Z,38.20
2022-12-22T17:58:51.108Z,52.00
2022-12-22T18:01:21.806Z,41.50
2022-12-22T18:03:49.006Z,50.77
2022-12-22T18:06:18.096Z,40.73
2022-12-22T18:08:45.422Z,47.97
2022-12-22T18:11:12.532Z,49.73
2022-12-22T18:13:39.372Z,51.17
2022-12-22T18:16:07.884Z,39.37
2022-12-22T18:18:35.412Z,47.90
2022-12-22T18:21:06.437Z,44.57
2022-12-22T18:23:36.684Z,44.30
2022-12-22T18:26:04.193Z,45.83
2022-12-22T18:28:31.076Z,42.90
2022-12-22T18:30:57.875Z,45.43
2022-12-22T18:33:25.777Z,44.33
2022-12-22T18:35:55.183Z,49.37
2022-12-22T18:38:26.304Z,46.80
2022-12-22T18:40:53.494Z,46.07
2022-12-22T18:43:20.603Z,49.33
2022-12-22T18:45:47.665Z,44.07
2022-12-22T18:48:17.866Z,42.93
2022-12-22T18:50:45.528Z,42.13
2022-12-22T18:53:24.400Z,45.27
2022-12-22T18:55:52.362Z,50.23
2022-12-22T18:58:19.323Z,45.37
2022-12-22T19:00:46.824Z,40.57
2022-12-22T19:03:21.574Z,38.93
2022-12-22T19:05:49.388Z,51.87
2022-12-22T19:08:23.428Z,54.00
2022-12-22T19:13:45.018Z,46.07
2022-12-22T19:16:17.694Z,50.47
2022-12-22T19:18:45.608Z,49.23
2022-12-22T19:21:15.468Z,54.10
2022-12-22T19:23:43.325Z,49.93
2022-12-22T19:26:15.851Z,49.40
2022-12-22T19:28:44.195Z,47.57
2022-12-22T19:31:17.885Z,51.23
2022-12-22T19:33:46.435Z,47.03
2022-12-22T19:36:27.324Z,49.83
2022-12-22T19:39:03.400Z,46.07
2022-12-22T19:41:42.429Z,46.60
2022-12-22T19:44:16.992Z,43.70
2022-12-22T19:46:44.379Z,40.60
2022-12-22T19:49:21.219Z,39.23
2022-12-22T19:51:49.946Z,38.67
2022-12-22T19:54:17.687Z,38.23
2022-12-22T19:57:07.822Z,38.20
2022-12-22T19:59:43.547Z,37.93
2022-12-22T20:02:34.650Z,38.53
2022-12-22T20:05:01.741Z,37.90
2022-12-22T20:07:30.233Z,34.30
2022-12-22T20:09:57.416Z,39.93
2022-12-22T20:12:26.213Z,34.30
2022-12-22T20:14:54.314Z,36.93
2022-12-22T20:17:22.000Z,33.83
2022-12-22T20:19:53.428Z,30.97
2022-12-22T20:22:22.374Z,31.73
2022-12-22T20:24:49.413Z,37.23
2022-12-22T20:27:18.823Z,33.93
2022-12-22T20:29:47.670Z,28.90
2022-12-22T20:32:17.847Z,29.60
2022-12-22T20:34:49.790Z,34.20
2022-12-22T20:37:17.125Z,33.33
2022-12-22T20:39:47.299Z,27.63
2022-12-22T20:42:24.327Z,27.53
2022-12-22T20:45:02.334Z,31.93
2022-12-22T20:47:35.608Z,31.10
2022-12-22T20:50:03.350Z,30.23
2022-12-22T20:52:31.056Z,29.77
2022-12-22T20:55:03.056Z,31.17
2022-12-22T20:57:30.936Z,29.83
2022-12-22T21:00:00.154Z,34.70
2022-12-22T21:02:32.272Z,29.13
2022-12-22T21:05:02.259Z,32.47
2022-12-22T21:07:29.400Z,35.50
2022-12-22T21:09:58.964Z,38.93
2022-12-22T21:12:27.074Z,37.40
2022-12-22T21:14:56.699Z,39.80
2022-12-22T21:21:06.756Z,36.30
2022-12-22T21:23:34.110Z,38.97
2022-12-22T21:26:01.315Z,36.43
2022-12-22T21:28:35.652Z,34.17
2022-12-22T21:31:03.560Z,30.93
2022-12-22T21:33:30.778Z,33.00
2022-12-22T21:35:58.629Z,34.57
2022-12-22T21:38:26.405Z,34.10
2022-12-22T21:40:55.684Z,31.70
2022-12-22T21:43:24.021Z,25.03
2022-12-22T21:45:52.254Z,28.97
2022-12-22T21:48:20.186Z,30.63
2022-12-22T21:50:53.413Z,27.37
2022-12-22T21:53:22.693Z,28.40
2022-12-22T21:55:50.088Z,30.40
2022-12-22T21:58:18.750Z,26.70
2022-12-22T22:00:49.635Z,23.37
2022-12-22T22:03:17.525Z,23.10
2022-12-22T22:05:45.405Z,26.77
2022-12-22T22:08:13.451Z,17.97
2022-12-22T22:10:42.331Z,20.40
2022-12-22T22:13:12.441Z,17.20
2022-12-22T22:15:40.808Z,15.30
2022-12-22T22:18:13.244Z,20.77
2022-12-22T22:20:41.344Z,15.93
2022-12-22T22:23:09.833Z,16.47
2022-12-22T22:28:22.244Z,18.73
2022-12-22T22:33:35.022Z,10.97
2022-12-22T22:36:06.952Z,14.13
2022-12-22T22:38:37.006Z,10.57
2022-12-22T22:41:03.858Z,12.80
2022-12-22T22:43:32.204Z,14.43
2022-12-22T22:45:59.052Z,11.17
2022-12-22T22:48:26.306Z,12.10
2022-12-22T22:50:53.091Z,14.40
2022-12-22T22:53:20.065Z,12.43
2022-12-22T22:55:46.761Z,12.57
2022-12-22T22:58:13.972Z,12.83
2022-12-22T23:00:41.614Z,12.97
2022-12-22T23:03:08.483Z,10.50
2022-12-22T23:05:35.247Z,11.53
2022-12-22T23:08:02.090Z,10.50
2022-12-22T23:10:28.930Z,10.17
2022-12-22T23:12:55.725Z,10.50
2022-12-22T23:15:22.398Z,9.67
2022-12-22T23:17:50.672Z,11.60
2022-12-22T23:20:17.611Z,7.97
2022-12-22T23:22:44.336Z,11.40
2022-12-22T23:25:11.081Z,9.57
2022-12-22T23:27:37.923Z,10.20
2022-12-22T23:30:04.892Z,10.43
2022-12-22T23:32:32.157Z,10.40
2022-12-22T23:34:58.869Z,11.50
2022-12-22T23:37:25.642Z,12.80
2022-12-22T23:39:52.491Z,11.97
2022-12-22T23:42:19.267Z,10.07
2022-12-22T23:44:45.944Z,10.47
2022-12-22T23:47:13.007Z,10.83
2022-12-22T23:49:39.870Z,10.90
2022-12-22T23:52:06.691Z,14.00
2022-12-22T23:54:33.396Z,13.23
2022-12-22T23:57:00.145Z,13.40
2022-12-22T23:59:26.856Z,14.43
